Time;durP1;ratioP1;P1;durP2;ratioP2;P2;SDS_P1;SDS_P2;PMS_P1;PMS_P2;Temp;Humidity;BMP_temperature;BMP_pressure;BME280_temperature;BME280_humidity;BME280_pressure;Samples;Min_cycle;Max_cycle;Signal;HPM_P1;HPM_P2
2021/05/23 00:01:25;;;;;;;4.90;1.83;;;12.40;46.30;;;;;;4953125;29;20222;-81
2021/05/23 00:03:51;;;;;;;3.50;1.63;;;12.30;46.20;;;;;;4952225;29;20582;-82
2021/05/23 00:06:18;;;;;;;2.03;1.48;;;12.30;46.30;;;;;;4952184;29;20031;-81
2021/05/23 00:08:44;;;;;;;1.73;1.30;;;12.30;46.30;;;;;;4952526;29;20086;-81
2021/05/23 00:11:10;;;;;;;1.40;1.30;;;12.30;46.40;;;;;;4951986;29;20031;-82
2021/05/23 00:13:45;;;;;;;1.30;1.20;;;12.30;46.50;;;;;;4952339;29;20031;-82
2021/05/23 00:16:20;;;;;;;5.78;2.67;;;12.20;46.50;;;;;;4952307;29;20502;-82
2021/05/23 00:18:51;;;;;;;2.40;1.65;;;12.20;46.60;;;;;;4951463;29;20865;-82
2021/05/23 00:21:19;;;;;;;2.25;1.35;;;12.20;46.60;;;;;;4952037;29;20031;-82
2021/05/23 00:23:45;;;;;;;2.15;1.60;;;12.20;46.60;;;;;;4918533;29;20035;-82
2021/05/23 00:26:12;;;;;;;2.53;1.40;;;12.20;46.70;;;;;;4951697;29;20043;-81
2021/05/23 00:28:39;;;;;;;1.90;1.45;;;12.20;47.30;;;;;;4951314;29;20035;-82
2021/05/23 00:31:06;;;;;;;3.20;1.60;;;12.20;46.80;;;;;;4951389;28;20438;-81
2021/05/23 00:33:32;;;;;;;3.10;1.70;;;12.10;46.70;;;;;;4934018;29;20126;-82
2021/05/23 00:35:58;;;;;;;2.63;1.67;;;12.10;46.70;;;;;;4934570;29;20035;-81
2021/05/23 00:38:24;;;;;;;1.50;1.40;;;12.10;46.80;;;;;;4933544;29;20594;-82
2021/05/23 00:40:51;;;;;;;3.55;1.90;;;12.10;46.90;;;;;;4934238;29;20024;-82
2021/05/23 00:43:19;;;;;;;3.40;1.50;;;12.10;46.90;;;;;;4952040;29;20031;-82
2021/05/23 00:45:46;;;;;;;2.63;1.60;;;12.00;46.80;;;;;;4934406;29;20050;-82
2021/05/23 00:48:12;;;;;;;3.75;1.65;;;12.00;46.90;;;;;;4934330;29;20039;-82
2021/05/23 00:50:39;;;;;;;1.70;1.60;;;12.00;47.00;;;;;;4933975;29;20113;-83
2021/05/23 00:53:06;;;;;;;4.88;1.80;;;12.00;47.10;;;;;;4917810;29;20041;-82
2021/05/23 00:55:32;;;;;;;2.13;1.60;;;11.90;47.00;;;;;;4951334;29;20172;-82
2021/05/23 00:57:59;;;;;;;2.97;1.70;;;11.90;47.10;;;;;;4933640;29;20066;-82
2021/05/23 01:00:40;;;;;;;1.95;1.55;;;11.90;47.20;;;;;;4951177;29;20383;-81
2021/05/23 01:03:24;;;;;;;3.88;2.20;;;11.90;47.40;;;;;;4934101;29;20234;-82
2021/05/23 01:05:58;;;;;;;2.05;1.67;;;11.90;47.40;;;;;;4933345;29;20031;-82
2021/05/23 01:08:26;;;;;;;4.25;1.73;;;11.90;47.30;;;;;;4933670;29;20118;-82
2021/05/23 01:11:04;;;;;;;2.63;1.92;;;11.90;47.40;;;;;;4945651;28;20471;-81
2021/05/23 01:13:39;;;;;;;3.92;1.67;;;11.90;47.50;;;;;;4942111;29;20134;-83
2021/05/23 01:16:15;;;;;;;2.40;1.27;;;11.90;47.60;;;;;;4950457;29;20031;-82
2021/05/23 01:19:07;;;;;;;2.20;1.60;;;11.90;47.60;;;;;;4950486;29;20047;-83
2021/05/23 01:21:40;;;;;;;2.65;1.38;;;11.90;48.30;;;;;;4933336;29;20032;-82
2021/05/23 01:24:17;;;;;;;2.17;1.75;;;11.90;47.70;;;;;;4950465;29;20031;-83
2021/05/23 01:26:48;;;;;;;2.65;1.45;;;11.90;47.70;;;;;;4933473;29;20470;-83
2021/05/23 01:29:14;;;;;;;2.90;1.95;;;11.90;47.60;;;;;;4933371;29;20482;-82
2021/05/23 01:31:41;;;;;;;2.88;1.40;;;11.90;47.70;;;;;;4933516;29;20038;-83
2021/05/23 01:34:09;;;;;;;2.28;1.55;;;11.90;47.70;;;;;;4951048;29;20027;-82
2021/05/23 01:36:39;;;;;;;2.65;1.60;;;12.00;48.00;;;;;;4924020;29;20028;-82
2021/05/23 01:39:12;;;;;;;2.55;1.55;;;11.90;47.80;;;;;;4945508;29;20043;-83
2021/05/23 01:41:39;;;;;;;3.55;1.67;;;11.90;47.90;;;;;;4951220;29;20102;-82
2021/05/23 01:44:05;;;;;;;2.33;1.52;;;12.00;48.00;;;;;;4949819;28;20063;-82
2021/05/23 01:46:32;;;;;;;1.77;1.50;;;11.90;47.80;;;;;;4931443;29;20055;-82
2021/05/23 01:48:58;;;;;;;1.73;1.45;;;11.90;47.80;;;;;;4917525;29;20040;-82
2021/05/23 01:51:25;;;;;;;2.97;1.45;;;11.90;47.80;;;;;;4917639;29;20412;-82
2021/05/23 01:53:52;;;;;;;2.90;1.40;;;11.90;47.90;;;;;;4934731;29;20028;-82
2021/05/23 01:56:18;;;;;;;2.63;1.45;;;11.90;47.90;;;;;;4917678;29;20035;-82
2021/05/23 01:58:44;;;;;;;2.13;1.60;;;11.90;48.00;;;;;;4933231;29;20387;-82
2021/05/23 02:01:10;;;;;;;1.88;1.30;;;11.90;48.00;;;;;;4917522;29;20047;-82
2021/05/23 02:03:37;;;;;;;2.53;1.48;;;11.80;47.90;;;;;;4917464;29;20427;-82
2021/05/23 02:06:04;;;;;;;3.25;1.40;;;11.80;47.90;;;;;;4917674;29;20375;-81
2021/05/23 02:08:32;;;;;;;1.90;1.50;;;11.80;48.00;;;;;;4934783;29;20035;-82
2021/05/23 02:11:05;;;;;;;2.58;1.45;;;11.80;48.00;;;;;;4933916;29;20221;-81
2021/05/23 02:13:31;;;;;;;3.17;1.60;;;11.80;48.10;;;;;;4934387;29;20047;-82
2021/05/23 02:15:58;;;;;;;3.20;1.73;;;11.70;47.90;;;;;;4934255;29;20031;-82
2021/05/23 02:18:24;;;;;;;1.45;1.35;;;11.80;48.20;;;;;;4934348;29;20043;-81
2021/05/23 02:20:50;;;;;;;1.95;1.52;;;11.70;48.00;;;;;;4932824;29;20056;-81
2021/05/23 02:23:19;;;;;;;2.22;1.63;;;11.70;48.10;;;;;;4934296;29;20044;-81
2021/05/23 02:25:45;;;;;;;2.17;1.33;;;11.70;48.20;;;;;;4917083;29;20510;-82
2021/05/23 02:28:12;;;;;;;2.65;1.73;;;11.60;48.00;;;;;;4917439;29;20126;-81
2021/05/23 02:30:47;;;;;;;1.50;1.33;;;11.60;48.10;;;;;;4934544;29;20028;-81
2021/05/23 02:33:14;;;;;;;2.50;1.52;;;11.60;48.20;;;;;;4933943;29;20083;-81
2021/05/23 02:35:44;;;;;;;3.08;1.63;;;11.60;48.20;;;;;;4917102;29;20372;-81
2021/05/23 02:38:11;;;;;;;2.22;1.65;;;11.60;48.20;;;;;;4934304;29;20043;-82
2021/05/23 02:40:38;;;;;;;5.93;1.70;;;11.50;48.00;;;;;;4933910;29;20472;-82
2021/05/23 02:43:09;;;;;;;4.32;1.92;;;11.50;48.10;;;;;;4934292;29;20036;-82
2021/05/23 02:45:35;;;;;;;1.73;1.50;;;11.50;48.20;;;;;;4917414;29;20118;-82
2021/05/23 02:48:03;;;;;;;4.10;2.33;;;11.40;48.10;;;;;;4916853;29;20047;-81
2021/05/23 02:50:35;;;;;;;3.90;1.70;;;11.40;48.10;;;;;;4934106;29;20031;-81
2021/05/23 02:53:05;;;;;;;1.95;1.55;;;11.40;48.20;;;;;;4933977;29;20064;-81
2021/05/23 02:55:31;;;;;;;3.08;1.65;;;11.30;48.00;;;;;;4935855;29;20035;-81
2021/05/23 02:57:57;;;;;;;5.93;1.73;;;11.30;48.10;;;;;;4920763;29;20419;-82
2021/05/23 03:00:24;;;;;;;1.63;1.52;;;11.30;48.20;;;;;;4937598;29;20075;-81
2021/05/23 03:02:51;;;;;;;3.50;1.95;;;11.30;48.20;;;;;;4937874;29;20024;-82
2021/05/23 03:05:19;;;;;;;3.20;1.63;;;11.30;48.30;;;;;;4938300;29;20126;-81
2021/05/23 03:07:48;;;;;;;2.22;1.67;;;11.20;48.20;;;;;;4920564;29;20063;-82
2021/05/23 03:10:17;;;;;;;3.95;1.55;;;11.20;48.20;;;;;;4937439;29;20403;-81
2021/05/23 03:12:44;;;;;;;2.47;1.85;;;11.20;48.30;;;;;;4936989;29;20475;-81
2021/05/23 03:15:16;;;;;;;3.08;1.75;;;11.20;48.40;;;;;;4937474;29;20032;-81
2021/05/23 03:17:43;;;;;;;3.40;1.50;;;11.10;48.20;;;;;;4937265;29;20443;-81
2021/05/23 03:20:10;;;;;;;5.40;1.88;;;11.10;48.30;;;;;;4920267;29;20067;-81
2021/05/23 03:22:37;;;;;;;3.35;1.63;;;11.10;48.30;;;;;;4920314;29;20128;-82
2021/05/23 03:25:08;;;;;;;3.08;1.70;;;11.10;48.40;;;;;;4937259;29;20082;-81
2021/05/23 03:27:34;;;;;;;1.50;1.40;;;11.10;48.50;;;;;;4937538;29;20034;-81
2021/05/23 03:30:01;;;;;;;2.78;1.88;;;11.10;48.50;;;;;;4937132;29;20031;-81
2021/05/23 03:32:27;;;;;;;3.95;1.50;;;11.00;48.40;;;;;;4937077;29;20039;-80
2021/05/23 03:34:53;;;;;;;2.90;1.30;;;11.00;48.40;;;;;;4936866;29;20047;-80
2021/05/23 03:37:19;;;;;;;1.77;1.42;;;10.90;48.30;;;;;;4936758;29;20032;-82
2021/05/23 03:39:45;;;;;;;3.28;2.13;;;10.90;48.40;;;;;;4937090;29;20046;-82
2021/05/23 03:42:11;;;;;;;6.00;1.73;;;10.90;48.40;;;;;;4936755;29;20028;-81
2021/05/23 03:44:37;;;;;;;2.72;1.80;;;10.80;48.30;;;;;;4937036;29;20035;-82
2021/05/23 03:47:03;;;;;;;1.58;1.48;;;10.80;48.30;;;;;;4936896;29;20055;-81
2021/05/23 03:49:29;;;;;;;2.05;1.67;;;10.80;48.40;;;;;;4937186;29;20050;-83
2021/05/23 03:51:55;;;;;;;2.90;1.63;;;10.70;48.30;;;;;;4920043;29;20486;-83
2021/05/23 03:54:21;;;;;;;3.17;1.83;;;10.70;48.40;;;;;;4919322;29;20031;-83
2021/05/23 03:56:47;;;;;;;2.22;1.40;;;10.70;48.40;;;;;;4936694;29;20035;-83
2021/05/23 03:59:13;;;;;;;1.45;1.35;;;10.70;48.50;;;;;;4936917;29;20565;-83
2021/05/23 04:01:39;;;;;;;1.85;1.30;;;10.70;48.60;;;;;;4936567;29;20034;-83
2021/05/23 04:04:07;;;;;;;2.30;1.73;;;10.60;48.40;;;;;;4936972;29;20039;-83
2021/05/23 04:06:33;;;;;;;1.38;1.20;;;10.60;48.50;;;;;;4934203;29;20483;-82
2021/05/23 04:08:59;;;;;;;3.95;2.08;;;10.60;48.50;;;;;;4937213;29;20047;-82
2021/05/23 04:11:32;;;;;;;2.42;1.63;;;10.60;48.50;;;;;;4936315;29;20091;-83
2021/05/23 04:13:58;;;;;;;3.35;1.60;;;10.60;48.60;;;;;;4936661;29;20079;-83
2021/05/23 04:16:24;;;;;;;1.90;1.40;;;10.60;48.60;;;;;;4936295;29;20032;-83
2021/05/23 04:18:50;;;;;;;2.92;1.70;;;10.50;48.50;;;;;;4936302;29;20046;-83
2021/05/23 04:21:16;;;;;;;3.88;1.83;;;10.40;48.40;;;;;;4958778;23;20047;-83
2021/05/23 04:23:42;;;;;;;3.80;1.65;;;10.40;48.50;;;;;;4955229;28;20540;-82
2021/05/23 04:26:08;;;;;;;1.73;1.60;;;10.40;48.50;;;;;;4955284;28;20027;-83
2021/05/23 04:28:34;;;;;;;1.80;1.70;;;10.40;48.50;;;;;;4955128;28;20035;-82
2021/05/23 04:31:00;;;;;;;3.35;1.73;;;10.40;48.60;;;;;;4937913;29;20557;-82
2021/05/23 04:33:26;;;;;;;2.88;1.30;;;10.40;48.70;;;;;;4955254;28;20042;-81
2021/05/23 04:35:52;;;;;;;3.67;1.45;;;10.40;48.70;;;;;;4938013;29;20027;-81
2021/05/23 04:38:18;;;;;;;3.67;1.60;;;10.30;48.60;;;;;;4937674;28;20039;-82
2021/05/23 04:40:44;;;;;;;1.90;1.45;;;10.30;48.60;;;;;;4921996;29;20578;-82
2021/05/23 04:43:10;;;;;;;4.07;1.63;;;10.30;48.60;;;;;;4937757;28;20031;-82
2021/05/23 04:45:37;;;;;;;1.50;1.40;;;10.30;48.70;;;;;;4955134;28;20054;-83
2021/05/23 04:48:05;;;;;;;1.52;1.40;;;10.30;48.70;;;;;;4952022;28;20426;-83
2021/05/23 04:50:31;;;;;;;2.13;1.52;;;10.40;48.90;;;;;;4934935;29;20043;-83
2021/05/23 04:52:57;;;;;;;3.03;1.90;;;10.40;49.00;;;;;;4918913;29;20027;-82
2021/05/23 04:55:23;;;;;;;3.00;2.10;;;10.40;49.00;;;;;;4951341;28;20055;-81
2021/05/23 04:57:50;;;;;;;3.25;1.42;;;10.50;49.20;;;;;;4915160;29;20035;-83
2021/05/23 05:00:16;;;;;;;2.50;1.65;;;10.50;49.10;;;;;;4899722;29;20042;-82
2021/05/23 05:02:42;;;;;;;3.33;1.80;;;10.50;49.00;;;;;;4931908;29;20333;-81
2021/05/23 05:05:13;;;;;;;2.15;1.52;;;10.60;49.20;;;;;;4914230;29;20507;-82
2021/05/23 05:07:41;;;;;;;1.55;1.40;;;10.60;49.20;;;;;;4917710;28;20177;-82
2021/05/23 05:10:08;;;;;;;2.30;1.60;;;10.70;49.30;;;;;;4917270;29;20419;-83
2021/05/23 05:12:34;;;;;;;5.10;1.83;;;10.70;49.20;;;;;;4932723;29;20097;-83
2021/05/23 05:15:00;;;;;;;2.13;1.83;;;10.70;49.20;;;;;;4950171;28;20095;-83
2021/05/23 05:17:26;;;;;;;1.73;1.42;;;10.80;49.30;;;;;;4949732;28;20526;-83
2021/05/23 05:19:52;;;;;;;3.10;1.73;;;10.80;49.30;;;;;;4933028;28;20055;-82
2021/05/23 05:22:18;;;;;;;2.05;1.33;;;10.80;49.30;;;;;;4932677;29;20101;-82
2021/05/23 05:24:45;;;;;;;3.90;1.70;;;10.80;49.30;;;;;;4933083;29;20031;-84
2021/05/23 05:27:11;;;;;;;2.67;1.60;;;10.90;49.50;;;;;;4932830;28;20084;-84
2021/05/23 05:29:37;;;;;;;2.15;1.60;;;10.90;49.40;;;;;;4933947;29;20051;-83
2021/05/23 05:32:03;;;;;;;3.67;1.92;;;10.90;49.40;;;;;;4932358;29;20031;-83
2021/05/23 05:34:29;;;;;;;3.78;1.88;;;11.00;49.60;;;;;;4933866;29;20295;-83
2021/05/23 05:36:55;;;;;;;1.52;1.42;;;11.00;49.50;;;;;;4949635;28;20100;-84
2021/05/23 05:39:21;;;;;;;1.75;1.65;;;11.10;49.70;;;;;;4917196;29;20625;-84
2021/05/23 05:41:47;;;;;;;1.55;1.33;;;11.10;49.60;;;;;;4932675;28;20055;-83
2021/05/23 05:44:13;;;;;;;2.10;1.60;;;11.10;49.60;;;;;;4916776;29;20325;-83
2021/05/23 05:46:39;;;;;;;3.55;1.33;;;11.20;49.70;;;;;;4949660;28;20031;-83
2021/05/23 05:49:05;;;;;;;2.08;1.33;;;11.20;49.70;;;;;;4949858;29;20033;-83
2021/05/23 05:51:31;;;;;;;2.33;1.67;;;11.20;49.70;;;;;;4932234;29;20035;-84
2021/05/23 05:53:57;;;;;;;1.70;1.60;;;11.30;49.80;;;;;;4932432;29;20031;-84
2021/05/23 05:56:23;;;;;;;2.60;1.65;;;11.30;49.80;;;;;;4916264;28;20027;-82
2021/05/23 05:58:49;;;;;;;2.83;1.60;;;11.30;49.70;;;;;;4932434;29;20039;-83
2021/05/23 06:01:15;;;;;;;2.20;1.60;;;11.40;49.90;;;;;;4932483;28;20031;-82
2021/05/23 06:03:42;;;;;;;2.15;1.52;;;11.40;49.80;;;;;;4949642;28;20074;-83
2021/05/23 06:06:08;;;;;;;3.97;1.80;;;11.50;49.90;;;;;;4932434;29;20453;-85
2021/05/23 06:08:34;;;;;;;4.38;1.55;;;11.50;49.90;;;;;;4890403;29;20042;-83
2021/05/23 06:11:00;;;;;;;3.25;1.70;;;11.50;49.90;;;;;;4897932;29;20399;-84
2021/05/23 06:13:26;;;;;;;1.85;1.52;;;11.50;49.90;;;;;;4924562;29;20027;-82
2021/05/23 06:15:53;;;;;;;3.42;1.63;;;11.60;50.00;;;;;;4949404;28;20047;-83
2021/05/23 06:18:27;;;;;;;3.75;1.67;;;11.60;50.00;;;;;;4931618;29;20054;-82
2021/05/23 06:20:54;;;;;;;1.75;1.30;;;11.70;50.20;;;;;;4949460;28;20491;-82
2021/05/23 06:23:21;;;;;;;6.07;1.98;;;11.70;50.10;;;;;;4932039;29;20042;-81
2021/05/23 06:25:48;;;;;;;3.85;1.90;;;11.70;50.10;;;;;;4932851;29;20047;-85
2021/05/23 06:28:14;;;;;;;2.53;1.65;;;11.70;50.00;;;;;;4948854;29;20039;-85
2021/05/23 06:30:40;;;;;;;2.47;1.60;;;11.80;50.20;;;;;;4934062;28;20385;-82
2021/05/23 06:33:06;;;;;;;2.17;1.45;;;11.80;50.10;;;;;;4948917;28;20483;-82
2021/05/23 06:35:33;;;;;;;3.65;1.52;;;11.90;50.30;;;;;;4933546;29;20419;-82
2021/05/23 06:37:59;;;;;;;2.05;1.40;;;11.90;50.20;;;;;;4938182;29;20054;-81
2021/05/23 06:40:26;;;;;;;5.10;1.63;;;12.00;50.30;;;;;;4952376;28;20727;-81
2021/05/23 06:42:52;;;;;;;3.15;1.60;;;12.00;50.30;;;;;;4906752;29;20023;-86
2021/05/23 06:45:18;;;;;;;2.42;1.60;;;12.10;50.50;;;;;;4934249;29;20308;-82
2021/05/23 06:47:44;;;;;;;2.90;1.52;;;12.10;50.40;;;;;;4936842;29;20542;-83
2021/05/23 06:50:10;;;;;;;2.08;1.35;;;12.10;50.40;;;;;;4920686;28;20082;-83
2021/05/23 06:52:37;;;;;;;2.90;1.63;;;12.20;50.50;;;;;;4920066;29;20024;-83
2021/05/23 06:55:04;;;;;;;1.60;1.50;;;12.30;50.60;;;;;;4952656;28;20550;-84
2021/05/23 06:57:31;;;;;;;2.63;1.58;;;12.30;50.50;;;;;;4952884;28;20739;-83
2021/05/23 06:59:57;;;;;;;2.88;1.80;;;12.40;50.60;;;;;;4952701;28;20105;-82
2021/05/23 07:02:23;;;;;;;2.47;1.48;;;12.50;50.70;;;;;;4953010;28;20091;-83
2021/05/23 07:04:49;;;;;;;2.70;1.48;;;12.60;50.90;;;;;;4935314;29;20034;-82
2021/05/23 07:07:15;;;;;;;1.95;1.17;;;12.60;50.70;;;;;;4935367;29;20062;-81
2021/05/23 07:09:43;;;;;;;3.25;1.90;;;12.70;50.90;;;;;;4952327;29;20067;-82
2021/05/23 07:12:09;;;;;;;3.85;1.40;;;12.80;51.00;;;;;;4935517;29;20035;-81
2021/05/23 07:14:35;;;;;;;1.90;1.40;;;13.00;51.20;;;;;;4918845;29;20046;-81
2021/05/23 07:17:01;;;;;;;4.90;1.50;;;13.10;51.30;;;;;;4952834;29;20023;-81
2021/05/23 07:19:27;;;;;;;1.65;1.55;;;13.20;51.30;;;;;;4952341;28;20098;-81
2021/05/23 07:21:53;;;;;;;1.48;1.38;;;13.30;51.30;;;;;;4935047;28;20036;-80
2021/05/23 07:24:19;;;;;;;1.65;1.50;;;13.50;51.50;;;;;;4918366;29;20035;-81
2021/05/23 07:26:45;;;;;;;3.00;1.75;;;13.60;51.50;;;;;;4935461;29;20035;-82
2021/05/23 07:29:11;;;;;;;2.55;1.67;;;13.80;51.70;;;;;;4918365;29;20024;-82
2021/05/23 07:31:37;;;;;;;2.83;1.67;;;13.90;51.70;;;;;;4935404;29;20408;-83
2021/05/23 07:34:04;;;;;;;2.85;1.55;;;14.10;51.90;;;;;;4918501;29;20027;-82
2021/05/23 07:36:30;;;;;;;5.68;1.95;;;14.30;52.30;;;;;;4951836;28;20051;-81
2021/05/23 07:38:56;;;;;;;4.00;1.38;;;14.40;52.40;;;;;;4935014;29;20047;-82
2021/05/23 07:41:23;;;;;;;2.50;1.52;;;14.50;52.50;;;;;;4934838;28;20351;-82
2021/05/23 07:43:49;;;;;;;6.72;1.95;;;14.60;52.70;;;;;;4951732;29;20035;-82
2021/05/23 07:46:15;;;;;;;2.92;1.40;;;14.70;52.70;;;;;;4951580;29;20031;-82
2021/05/23 07:48:41;;;;;;;3.97;1.50;;;14.80;52.90;;;;;;4918321;29;20075;-82
2021/05/23 07:51:07;;;;;;;1.85;1.63;;;14.90;53.00;;;;;;4951428;28;20055;-81
2021/05/23 07:53:34;;;;;;;3.17;1.42;;;15.10;53.30;;;;;;4918564;28;20027;-82
2021/05/23 07:56:00;;;;;;;3.22;1.38;;;15.20;53.30;;;;;;4933635;29;20058;-82
2021/05/23 07:58:27;;;;;;;6.15;2.13;;;15.30;53.40;;;;;;4934025;29;20035;-81
2021/05/23 08:00:53;;;;;;;1.67;1.10;;;15.40;53.40;;;;;;4951688;28;20031;-90
2021/05/23 08:03:19;;;;;;;4.00;1.50;;;15.50;53.50;;;;;;4934797;29;20300;-82
2021/05/23 08:05:45;;;;;;;3.72;1.60;;;15.70;53.70;;;;;;4934122;28;20030;-80
2021/05/23 08:08:11;;;;;;;4.05;1.60;;;15.80;53.80;;;;;;4951360;28;20035;-80
2021/05/23 08:10:38;;;;;;;4.10;1.85;;;16.00;53.90;;;;;;4934898;29;20031;-80
2021/05/23 08:13:04;;;;;;;3.63;1.60;;;16.20;53.90;;;;;;4934331;29;20498;-81
2021/05/23 08:15:31;;;;;;;3.10;1.52;;;16.40;54.20;;;;;;4933912;29;20039;-81
2021/05/23 08:17:57;;;;;;;3.47;1.42;;;16.50;53.90;;;;;;4929206;29;20491;-82
2021/05/23 08:20:24;;;;;;;4.28;1.98;;;16.70;53.90;;;;;;4899299;29;20062;-81
2021/05/23 08:22:50;;;;;;;3.47;1.52;;;16.80;53.90;;;;;;4938570;28;20454;-81
2021/05/23 08:25:16;;;;;;;1.90;1.27;;;16.90;53.80;;;;;;4918175;29;20035;-82
2021/05/23 08:27:42;;;;;;;2.45;1.73;;;17.10;53.70;;;;;;4931173;29;20379;-80
2021/05/23 08:30:10;;;;;;;4.68;1.70;;;17.20;53.60;;;;;;4914687;29;20126;-88
2021/05/23 08:32:37;;;;;;;3.38;1.40;;;17.30;53.50;;;;;;4919856;29;20131;-82
2021/05/23 08:35:06;;;;;;;4.25;1.73;;;17.60;53.80;;;;;;4918654;29;20398;-79
2021/05/23 08:37:32;;;;;;;4.68;2.85;;;18.10;54.10;;;;;;4917411;29;20063;-81
2021/05/23 08:39:58;;;;;;;9.90;3.72;;;18.60;53.50;;;;;;4933242;29;20486;-84
2021/05/23 08:42:24;;;;;;;14.60;5.78;;;18.90;53.20;;;;;;4933539;29;20561;-81
2021/05/23 08:44:50;;;;;;;9.95;4.72;;;18.90;52.90;;;;;;4917948;29;20075;-83
2021/05/23 08:47:16;;;;;;;12.98;5.53;;;18.90;52.80;;;;;;4950855;29;20031;-84
2021/05/23 08:49:42;;;;;;;20.90;6.28;;;18.80;52.70;;;;;;4934179;29;20079;-84
2021/05/23 08:52:08;;;;;;;8.43;5.65;;;18.80;52.70;;;;;;4950591;28;20027;-82
2021/05/23 08:54:41;;;;;;;13.77;6.30;;;18.80;52.80;;;;;;4901187;29;20058;-83
2021/05/23 08:57:07;;;;;;;14.27;6.05;;;18.80;52.70;;;;;;4917713;29;20037;-83
2021/05/23 08:59:33;;;;;;;13.15;5.80;;;19.00;52.80;;;;;;4916328;29;20131;-83
2021/05/23 09:02:07;;;;;;;11.13;5.28;;;19.20;52.70;;;;;;4916004;29;20024;-85
2021/05/23 09:04:33;;;;;;;13.52;5.82;;;19.40;52.60;;;;;;4930146;29;20035;-83
2021/05/23 09:07:04;;;;;;;11.68;5.78;;;19.40;52.50;;;;;;4932924;29;20027;-82
2021/05/23 09:09:42;;;;;;;8.70;5.00;;;19.40;52.40;;;;;;4949854;28;20027;-83
2021/05/23 09:12:09;;;;;;;10.38;5.13;;;19.50;52.50;;;;;;4932882;29;20037;-83
2021/05/23 09:14:38;;;;;;;9.38;4.72;;;19.50;52.50;;;;;;4950131;28;20042;-81
2021/05/23 09:17:05;;;;;;;9.18;5.22;;;19.60;52.60;;;;;;4949800;28;20505;-79
2021/05/23 09:19:44;;;;;;;11.52;5.43;;;19.80;52.80;;;;;;4949856;28;20046;-80
2021/05/23 09:22:16;;;;;;;14.77;6.53;;;19.80;52.60;;;;;;4932743;28;20426;-83
2021/05/23 09:25:01;;;;;;;18.05;6.13;;;20.00;52.90;;;;;;4950118;29;20523;-81
2021/05/23 09:27:32;;;;;;;13.93;6.50;;;20.10;53.00;;;;;;4916486;29;20371;-82
2021/05/23 09:30:15;;;;;;;8.68;4.90;;;20.20;53.00;;;;;;4932628;29;20193;-82
2021/05/23 09:32:44;;;;;;;17.30;5.80;;;20.30;52.90;;;;;;4931917;29;20142;-82
2021/05/23 09:35:11;;;;;;;10.55;5.20;;;20.30;52.90;;;;;;4932595;29;20061;-82
2021/05/23 09:37:38;;;;;;;9.57;4.38;;;20.40;53.00;;;;;;4932218;29;20035;-82
2021/05/23 09:40:41;;;;;;;10.48;5.40;;;20.40;52.80;;;;;;4949466;29;20584;-82
2021/05/23 09:43:09;;;;;;;9.48;5.07;;;20.50;52.90;;;;;;4932735;29;20094;-82
2021/05/23 09:45:43;;;;;;;10.75;5.00;;;20.60;52.90;;;;;;4932573;28;20399;-82
2021/05/23 09:48:36;;;;;;;8.25;4.78;;;20.60;52.80;;;;;;4916232;29;20035;-82
2021/05/23 09:51:17;;;;;;;7.68;4.22;;;20.60;52.70;;;;;;4937242;28;20039;-82
2021/05/23 09:53:44;;;;;;;10.10;5.15;;;20.70;52.80;;;;;;4915256;28;20447;-81
2021/05/23 09:56:14;;;;;;;6.88;4.03;;;20.70;52.80;;;;;;4916248;29;20375;-80
2021/05/23 09:58:50;;;;;;;10.52;4.65;;;20.70;52.70;;;;;;4916110;29;20536;-81
2021/05/23 10:01:34;;;;;;;8.38;4.60;;;20.70;52.70;;;;;;4916461;29;20046;-81
2021/05/23 10:04:02;;;;;;;;;;;20.60;52.50;;;;;;4916897;29;20035;-82
2021/05/23 10:06:33;;;;;;;9.95;3.97;;;20.60;52.80;;;;;;4933197;29;20009;-82
2021/05/23 10:09:01;;;;;;;7.68;3.83;;;20.50;52.50;;;;;;4916130;29;20086;-84
2021/05/23 10:11:28;;;;;;;6.68;3.83;;;20.40;52.40;;;;;;4901802;28;20062;-81
2021/05/23 10:13:54;;;;;;;5.72;3.58;;;20.30;52.20;;;;;;4931721;29;20335;-80
2021/05/23 10:16:21;;;;;;;9.25;4.88;;;20.30;52.30;;;;;;4949644;28;20035;-81
2021/05/23 10:18:50;;;;;;;6.68;4.57;;;20.20;52.30;;;;;;4921045;29;20054;-80
2021/05/23 10:21:16;;;;;;;9.90;5.28;;;20.20;52.40;;;;;;4897347;29;20131;-81
2021/05/23 10:23:57;;;;;;;8.38;4.82;;;20.10;52.20;;;;;;4924904;29;20117;-81
2021/05/23 10:26:26;;;;;;;10.52;5.13;;;20.10;52.20;;;;;;4931869;29;20085;-81
2021/05/23 10:28:54;;;;;;;9.27;4.35;;;20.10;52.30;;;;;;4931625;29;20045;-81
2021/05/23 10:31:34;;;;;;;7.72;3.70;;;20.00;52.10;;;;;;4932122;29;20164;-80
2021/05/23 10:34:01;;;;;;;5.90;3.97;;;20.10;52.30;;;;;;4931721;29;20035;-81
2021/05/23 10:36:38;;;;;;;8.80;3.95;;;20.10;52.30;;;;;;4932115;29;20039;-81
2021/05/23 10:39:10;;;;;;;5.88;4.15;;;20.10;52.30;;;;;;4948913;28;20047;-80
2021/05/23 10:41:36;;;;;;;5.75;3.80;;;20.10;52.30;;;;;;4948687;29;20435;-81
2021/05/23 10:44:08;;;;;;;5.95;3.45;;;20.10;52.20;;;;;;4931520;29;20117;-87
2021/05/23 10:46:51;;;;;;;7.75;4.57;;;20.20;52.30;;;;;;4949132;29;20108;-82
2021/05/23 10:49:18;;;;;;;6.20;4.10;;;20.20;52.30;;;;;;4949337;28;20485;-82
2021/05/23 10:51:55;;;;;;;8.60;4.03;;;20.20;52.30;;;;;;4948887;28;20035;-80
2021/05/23 10:54:22;;;;;;;6.68;4.18;;;20.10;52.10;;;;;;4948718;29;20102;-82
2021/05/23 10:57:01;;;;;;;6.20;4.28;;;20.10;52.30;;;;;;4949249;28;20490;-82
2021/05/23 10:59:30;;;;;;;6.75;3.85;;;20.00;52.20;;;;;;4954485;29;20118;-85
2021/05/23 11:01:56;;;;;;;5.60;3.85;;;19.90;52.20;;;;;;4940407;28;20269;-80
2021/05/23 11:04:24;;;;;;;6.32;4.13;;;19.80;52.20;;;;;;4940889;29;20038;-82
2021/05/23 11:06:50;;;;;;;6.40;4.20;;;19.70;52.30;;;;;;4896582;29;20401;-81
2021/05/23 11:09:20;;;;;;;5.40;4.07;;;19.60;52.40;;;;;;4943224;29;20446;-81
2021/05/23 11:11:47;;;;;;;7.68;3.88;;;19.60;52.60;;;;;;4948710;28;20031;-83
2021/05/23 11:14:24;;;;;;;5.53;4.38;;;19.60;52.60;;;;;;4931950;29;20040;-81
2021/05/23 11:16:53;;;;;;;6.57;4.22;;;19.60;52.60;;;;;;4950231;28;20042;-84
2021/05/23 11:19:20;;;;;;;5.75;3.85;;;19.60;52.60;;;;;;4934964;29;20402;-83
2021/05/23 11:21:50;;;;;;;6.13;3.63;;;19.60;52.50;;;;;;4951658;28;20396;-83
2021/05/23 11:24:17;;;;;;;5.60;3.67;;;19.70;52.70;;;;;;4951314;29;20398;-82
2021/05/23 11:26:44;;;;;;;6.90;3.75;;;19.70;52.70;;;;;;4923719;29;20042;-82
2021/05/23 11:29:11;;;;;;;6.53;3.55;;;19.60;52.50;;;;;;4957057;28;20039;-81
2021/05/23 11:31:45;;;;;;;6.43;5.55;;;19.50;52.40;;;;;;4954556;28;20406;-79
2021/05/23 11:34:15;;;;;;;6.75;5.22;;;19.50;52.90;;;;;;4952717;29;20066;-83
2021/05/23 11:36:41;;;;;;;7.57;4.43;;;19.50;53.50;;;;;;4922365;29;20042;-78
2021/05/23 11:39:12;;;;;;;10.80;4.55;;;19.60;53.80;;;;;;4920954;29;20128;-83
2021/05/23 11:41:44;;;;;;;6.93;4.70;;;19.60;54.20;;;;;;4952125;29;20147;-83
2021/05/23 11:44:12;;;;;;;5.35;3.90;;;19.50;54.10;;;;;;4936188;29;20035;-82
2021/05/23 11:46:42;;;;;;;6.93;4.57;;;19.60;54.40;;;;;;4951188;28;20031;-81
2021/05/23 11:49:17;;;;;;;6.30;3.90;;;19.60;54.50;;;;;;4934884;28;20043;-81
2021/05/23 11:51:43;;;;;;;5.45;4.53;;;19.60;54.50;;;;;;4934808;29;20557;-81
2021/05/23 11:54:09;;;;;;;5.40;3.85;;;19.60;54.50;;;;;;4951451;28;20517;-82
2021/05/23 11:56:35;;;;;;;4.82;3.80;;;19.60;54.40;;;;;;4934032;29;20035;-85
2021/05/23 11:59:06;;;;;;;4.05;3.38;;;19.70;54.60;;;;;;4934108;28;20169;-82
2021/05/23 12:01:40;;;;;;;4.60;3.88;;;19.80;54.80;;;;;;4951725;28;20027;-81
2021/05/23 12:04:12;;;;;;;6.82;3.95;;;19.80;54.70;;;;;;4951751;28;20041;-80
2021/05/23 12:06:39;;;;;;;6.80;3.88;;;19.70;54.50;;;;;;4919089;29;20050;-83
2021/05/23 12:09:12;;;;;;;4.50;3.60;;;19.60;54.30;;;;;;4917750;28;20061;-81
2021/05/23 12:11:39;;;;;;;6.28;3.80;;;19.70;54.60;;;;;;4919266;29;20502;-82
2021/05/23 12:14:16;;;;;;;4.90;3.35;;;19.70;54.60;;;;;;4951057;28;20046;-79
2021/05/23 12:16:42;;;;;;;4.72;3.47;;;19.70;54.70;;;;;;4951429;29;20467;-80
2021/05/23 12:19:08;;;;;;;7.10;3.50;;;19.70;54.60;;;;;;4950814;28;20050;-82
2021/05/23 12:21:34;;;;;;;4.93;3.45;;;19.60;54.40;;;;;;4951212;29;20051;-81
2021/05/23 12:24:00;;;;;;;5.10;3.40;;;19.60;54.50;;;;;;4951158;28;20039;-81
2021/05/23 12:26:27;;;;;;;5.55;3.38;;;19.50;54.40;;;;;;4951088;28;20027;-81
2021/05/23 12:28:54;;;;;;;8.75;3.55;;;19.50;54.40;;;;;;4949884;28;20210;-82
2021/05/23 12:31:22;;;;;;;8.05;3.42;;;19.40;54.20;;;;;;4934234;29;20560;-82
2021/05/23 12:33:57;;;;;;;4.65;3.17;;;19.40;54.30;;;;;;4933996;29;20027;-82
2021/05/23 12:36:26;;;;;;;4.15;2.80;;;19.40;54.40;;;;;;4933961;28;20123;-82
2021/05/23 12:38:58;;;;;;;4.53;2.88;;;19.30;54.30;;;;;;4933589;29;20126;-83
2021/05/23 12:41:47;;;;;;;5.60;2.58;;;19.30;54.40;;;;;;4918029;28;20027;-84
2021/05/23 12:44:21;;;;;;;5.60;2.75;;;19.20;54.20;;;;;;4918135;29;20031;-83
2021/05/23 12:46:48;;;;;;;4.47;2.80;;;19.20;54.40;;;;;;4917642;29;20037;-83
2021/05/23 12:49:19;;;;;;;6.63;2.95;;;19.10;54.30;;;;;;4950737;29;20070;-84
2021/05/23 12:51:48;;;;;;;5.90;2.33;;;19.10;54.40;;;;;;4934004;29;20027;-85